Terminal Aerodrome Forecast
Issued by NWS Pocatello, ID

Home | Current Version | Previous Version | Text Only | Print | Product List | Glossary On
Versions: 1 2 3 4 5 6 7 8 9 10 11 12 13 14 15 16 17
000
FTUS45 KPIH 210500
TAFPIH
TAF
KPIH 210520Z 2106/2206 23008KT P6SM SCT200
     FM210800 VRB05KT P6SM BKN200
     FM212000 21010G15KT P6SM FEW060 BKN120
     FM220200 18011KT P6SM BKN090=

USA.gov is the U.S. government's official web portal to all federal, state and local government web resources and services.